Terminal Aerodrome Forecast
Issued by NWS

Home | Current Version | Previous Version | Text Only | Print | Product List | Glossary On
Versions: 1 2 3 4 5 6 7 8 9 10 11 12 13 14
000
FTUS46 KLOX 052300
TAFWJF
TAF
KWJF 052331Z 0600/0624 07012KT P6SM SKC
     FM060300 VRB03KT P6SM SKC
     FM061800 06014G20KT P6SM SKC=

USA.gov is the U.S. government's official web portal to all federal, state and local government web resources and services.